Okay Tekdemir

Scout - Hatayspor
22 Feb 2028
Dienstag
Verarbeitung

Persönlichkeit

Anpassungsfähigkeit (17) Ehrgeiz (9) Kontroverse (17) Loyalität (16) Druck (11) Professionalität (9) Fairness (14) Temperament (17)

Profil

Trainerstil Demokratisch
Lizenz Kontinentale Pro
Entschlossenheit 10
Menschenführung 9
Motivation 11
Disziplin 5
Arbeitszufriedenheit
85%
Ermüdung
0%
Rolle Scout
Gehalt 37.6K p/W
Vertrag 14.03.2029

Leistung

Verhalten Gut
Trainingseffektivität
33%
Spielerentwicklung
50%
Verletzungsprävention
30%
Taktische Umsetzung
55%

Letzte Ereignisse

Nahm an einer Scouting-Besprechung teil jetzt
Empfahl ein Transferziel jetzt
Nahm an einer Scouting-Besprechung teil 7T her
Empfahl ein Transferziel 7T her
Empfahl ein Transferziel 7T her
Empfahl ein Transferziel 7T her
Empfahl ein Transferziel 14T her
Empfahl ein Transferziel 14T her

Aktuell beobachtet

72
Spieler Verein Status Fähigkeit Vertrauen Beobachtet Zuletzt beobachtet Letzte Stimme
Gastón Silva Kayserispor Aktiv 99 / 102 76% 1 31.01.2028 Befürworten
Adnan Efe Fettahoğlu Fenerbahce Verhandlung 97 / 99 76% 1 01.01.2028 Befürworten
Cristian Barrios Junior Aktiv 125 / 132 40% 2 31.12.2027 -
Mateo Zuleta Once Caldas Aktiv 116 / 135 40% 2 31.12.2027 -
Gastón Moreyra Almirante Brown Aktiv 113 / 103 40% 1 31.12.2027 -
Jáder Valencia Deportes Tolima Aktiv 123 / 112 40% 3 30.12.2027 -
Alejo Cruz Juventud Aktiv 124 / 108 40% 4 30.12.2027 -
Agustín Gallo Tristán Suárez Aktiv 122 / 114 40% 4 28.12.2027 -
Santiago Apa All Boys Aktiv 102 / 123 40% 2 28.12.2027 -
Nicolás Heiz Maipú Aktiv 100 / 106 40% 1 28.12.2027 -
Adrián Parra Deportes Tolima Aktiv 127 / 118 40% 3 27.12.2027 -
Victor Mbaoma Tusker Aktiv 97 / 86 40% 1 27.12.2027 -
Jhoao Rodríguez Deportes Quindio Aktiv 105 / 121 40% 4 26.12.2027 -
Daniel Valencia America de Cali Aktiv 118 / 129 40% 2 26.12.2027 -
Kevin Méndez Dinamo Tbilisi Aktiv 113 / 103 40% 2 25.12.2027 -
Luciano Inverso Rentistas Aktiv 114 / 108 40% 2 25.12.2027 -
Gianluca Pugliese Güemes Verhandlung 114 / 125 40% 6 23.12.2027 -
Adalberto Peñaranda Deportivo Tachira Aktiv 119 / 115 40% 2 23.12.2027 -
Eric Ramírez Llaneros Aktiv 109 / 126 40% 1 23.12.2027 -
Luca Franco Arsenal Aktiv 116 / 103 40% 4 22.12.2027 -
Manuel Ospina Cortulua Aktiv 141 / 133 40% 7 21.12.2027 -
Timothy Zechariah Rivers United Aktiv 96 / 84 40% 2 21.12.2027 -
Ignacio Yepez Cerrito Aktiv 113 / 124 40% 1 21.12.2027 -
Lewis Morgan SuperSport United Aktiv 128 / 117 40% 2 19.12.2027 -
Ismail Sarki Niger Tornadoes Aktiv 104 / 103 40% 1 19.12.2027 -
Richard Celis Zamora Aktiv 108 / 105 40% 3 18.12.2027 -
Luciano Cosentino Wanderers Aktiv 125 / 134 40% 2 18.12.2027 -
Jonathan Cañete Portuguesa Aktiv 105 / 122 40% 3 17.12.2027 -
Marcus Vinicius Deportivo Pereira Aktiv 121 / 112 40% 2 17.12.2027 -
Adama Goïta Remo Stars Aktiv 95 / 111 40% 2 13.12.2027 -
Maclyn Biokpo Jenewari Rivers United Aktiv 107 / 122 40% 3 11.12.2027 -
Negueba Mirassol Aktiv 129 / 112 40% 5 11.12.2027 -
Nicolás Cordero Aldosivi Aktiv 117 / 127 40% 1 06.12.2027 -
Jefry Zapata Danubio Aktiv 127 / 123 40% 1 04.12.2027 -
Luca Martínez Dupuy Godoy Cruz Aktiv 119 / 121 40% 1 04.12.2027 -
Lucas Carrizo Plaza Colonia Aktiv 109 / 120 40% 1 03.12.2027 -
Sunday Megwo Abia Warriors Aktiv 101 / 85 40% 1 03.12.2027 -
Paulos Abraham Hammarby Aktiv 126 / 122 40% 1 02.12.2027 -
Richard Figueroa Deportivo Lara Aktiv 113 / 109 40% 1 29.11.2027 -
Patrick Preciado Deportivo Pasto Aktiv 108 / 116 40% 2 22.11.2027 -
Ferreirinha Sport Recife Aktiv 135 / 130 40% 1 21.11.2027 -
Marco Miori Alvarado Aktiv 104 / 108 40% 1 20.11.2027 -
Federico Martínez Liverpool Montevideo Verhandlung 122 / 104 40% 1 18.11.2027 -
Leandro Suhr Boston River Aktiv 113 / 108 40% 1 18.11.2027 -
Ivo Costantino Rentistas Aktiv 113 / 97 40% 1 16.11.2027 -
Juan Rocca Gimnasia y Tiro Aktiv 106 / 95 40% 1 10.11.2027 -
Fernando Mimbacas Juventud Aktiv 105 / 99 40% 1 07.11.2027 -
Kelvin Flórez Atletico Bucaramanga Aktiv 117 / 118 40% 1 06.11.2027 -
Juan Mendoza Güemes Aktiv 105 / 116 40% 1 02.11.2027 -
Marco Bustillo Zamora Aktiv 112 / 107 40% 1 02.11.2027 -
Mateo Castillo Millonarios Aktiv 136 / 115 40% 2 17.10.2027 -
Maximiliano Rueda Patronato Aktiv 113 / 107 40% 2 17.10.2027 -
Santiago Jiménez Deportivo Pasto Aktiv 127 / 108 40% 1 17.10.2027 -
Brian Orosco Godoy Cruz Aktiv 111 / 119 40% 1 16.10.2027 -
Facundo Altamira Godoy Cruz Aktiv 127 / 137 40% 1 16.10.2027 -
Jannenson Sarmiento Junior Aktiv 124 / 112 40% 2 13.10.2027 -
Johan Martínez Deportivo Cali Aktiv 116 / 121 40% 1 13.10.2027 -
Antonio Galeano Remo Stars Aktiv 133 / 141 40% 2 11.10.2027 -
Yuber Quiñónes Deportivo Pereira Aktiv 120 / 121 40% 1 11.10.2027 -
Enzo Acosta Estudiantes Aktiv 108 / 109 40% 1 11.10.2027 -
Duvan Rangel La Equidad Aktiv 144 / 149 40% 2 09.10.2027 -
Sebastián Medina Tigre Aktiv 121 / 130 40% 1 07.10.2027 -
Hernán Toledo Albion Aktiv 115 / 121 40% 1 07.10.2027 -
Sergio Bacca Cortulua Aktiv 120 / 104 40% 1 06.10.2027 -
Alejo Dramisino Atlanta Aktiv 115 / 121 40% 1 06.10.2027 -
Léider Riascos Atletico Bucaramanga Aktiv 118 / 105 40% 1 05.10.2027 -
Ufuk Akyol Antalyaspor Aktiv 107 / 106 69% 1 11.01.2027 Befürworten
Williams Manyama SuperSport United Aktiv 110 / 109 40% 1 31.12.2026 -
Christopher Opéri Basaksehir Aktiv 129 / 123 40% 1 31.12.2026 -
Reda Khadra Qarabag Aktiv 137 / 130 40% 1 31.12.2026 -
Ernest Muçi Trabzonspor Aktiv 129 / 138 40% 1 01.08.2026 -
Breel Embolo Atlanta United FC Aktiv 130 / 122 40% 1 01.08.2026 -